Time;durP1;ratioP1;P1;durP2;ratioP2;P2;SDS_P1;SDS_P2;PMS_P1;PMS_P2;Temp;Humidity;BMP_temperature;BMP_pressure;BME280_temperature;BME280_humidity;BME280_pressure;Samples;Min_cycle;Max_cycle;Signal;HPM_P1;HPM_P2
2022/07/21 00:00:26;;;;;;;4.70;4.30;;;24.10;59.70;;;;;;5031077;28;20068;-50
2022/07/21 00:02:54;;;;;;;5.50;4.90;;;24.10;59.50;;;;;;5023653;28;20699;-50
2022/07/21 00:05:21;;;;;;;5.45;4.60;;;24.10;59.50;;;;;;5025067;28;20092;-48
2022/07/21 00:07:51;;;;;;;5.13;4.63;;;24.00;59.70;;;;;;5024662;28;20041;-50
2022/07/21 00:10:23;;;;;;;4.90;4.50;;;24.00;59.80;;;;;;5022152;28;20116;-50
2022/07/21 00:12:56;;;;;;;5.60;5.00;;;24.00;59.90;;;;;;5025560;28;20561;-51
2022/07/21 00:15:27;;;;;;;6.05;5.10;;;24.10;60.40;;;;;;5028821;28;20083;-48
2022/07/21 00:17:54;;;;;;;4.95;4.43;;;24.00;60.30;;;;;;5026823;28;20044;-48
2022/07/21 00:20:21;;;;;;;6.55;5.00;;;24.00;60.60;;;;;;5022115;28;20045;-48
2022/07/21 00:22:52;;;;;;;5.82;5.32;;;24.00;60.30;;;;;;5030684;28;20045;-47
2022/07/21 00:25:23;;;;;;;5.30;4.70;;;24.00;60.60;;;;;;5024824;28;20033;-47
2022/07/21 00:28:02;;;;;;;5.40;4.90;;;24.00;60.70;;;;;;5029840;28;20045;-48
2022/07/21 00:30:29;;;;;;;8.40;5.40;;;24.00;60.70;;;;;;5026485;28;20091;-49
2022/07/21 00:32:59;;;;;;;6.03;5.53;;;24.00;60.80;;;;;;5027830;28;20112;-51
2022/07/21 00:35:26;;;;;;;7.18;6.35;;;24.00;60.90;;;;;;5029517;28;20041;-49
2022/07/21 00:37:58;;;;;;;6.60;6.00;;;24.00;60.90;;;;;;5030519;28;20049;-49
2022/07/21 00:40:28;;;;;;;7.28;6.57;;;24.00;60.90;;;;;;5030028;28;20049;-52
2022/07/21 00:42:58;;;;;;;8.32;6.47;;;24.00;61.10;;;;;;5030344;28;20053;-49
2022/07/21 00:45:27;;;;;;;7.30;6.43;;;24.00;60.80;;;;;;5029835;28;20069;-53
2022/07/21 00:47:54;;;;;;;6.65;6.13;;;24.00;61.10;;;;;;5026697;28;20111;-51
2022/07/21 00:50:28;;;;;;;7.00;6.30;;;24.00;61.10;;;;;;5024354;28;20034;-48
2022/07/21 00:52:55;;;;;;;7.15;6.50;;;24.00;61.10;;;;;;5012399;28;20044;-48
2022/07/21 00:55:22;;;;;;;6.90;6.28;;;24.00;61.00;;;;;;5029175;28;20045;-50
2022/07/21 00:57:53;;;;;;;6.78;5.93;;;24.00;61.10;;;;;;5024273;28;20041;-48
2022/07/21 01:00:25;;;;;;;6.78;6.18;;;24.00;61.10;;;;;;5021484;28;20045;-49
2022/07/21 01:02:52;;;;;;;7.15;6.45;;;24.00;61.30;;;;;;5029727;28;20045;-48
2022/07/21 01:05:19;;;;;;;7.03;6.22;;;24.00;61.00;;;;;;5026683;28;20095;-48
2022/07/21 01:07:51;;;;;;;6.90;6.22;;;24.00;61.00;;;;;;5023981;28;20034;-50
2022/07/21 01:10:26;;;;;;;6.38;5.70;;;24.00;61.50;;;;;;5028927;28;20037;-49
2022/07/21 01:12:54;;;;;;;7.25;6.22;;;24.00;61.40;;;;;;5029773;28;20563;-48
2022/07/21 01:15:22;;;;;;;6.60;6.00;;;24.00;61.40;;;;;;5028774;28;20045;-50
2022/07/21 01:17:49;;;;;;;6.15;5.55;;;24.00;61.60;;;;;;5024553;28;20065;-48
2022/07/21 01:20:18;;;;;;;6.38;5.78;;;24.00;61.60;;;;;;5029243;28;20065;-48
2022/07/21 01:22:48;;;;;;;6.80;6.10;;;24.00;61.60;;;;;;5030377;28;20053;-48
2022/07/21 01:25:16;;;;;;;6.45;5.85;;;24.00;61.70;;;;;;5022975;28;20528;-49
2022/07/21 01:27:45;;;;;;;6.20;5.65;;;24.00;61.60;;;;;;5024375;28;20067;-49
2022/07/21 01:30:15;;;;;;;7.03;6.30;;;23.90;61.40;;;;;;5028495;28;20084;-51
2022/07/21 01:32:42;;;;;;;6.80;6.20;;;24.00;61.10;;;;;;5031754;28;20375;-49
2022/07/21 01:35:14;;;;;;;8.07;6.25;;;23.90;61.00;;;;;;5033159;28;20042;-51
2022/07/21 01:37:44;;;;;;;7.55;6.25;;;23.90;61.00;;;;;;5027394;28;20069;-52
2022/07/21 01:42:59;;;;;;;7.47;6.47;;;23.80;60.90;;;;;;5033177;28;20465;-51
2022/07/21 01:45:29;;;;;;;7.03;6.32;;;23.70;61.20;;;;;;5030278;28;20498;-48
2022/07/21 01:47:56;;;;;;;7.57;6.30;;;23.70;61.40;;;;;;5030509;28;20050;-52
2022/07/21 01:50:26;;;;;;;6.45;5.63;;;23.70;61.50;;;;;;5032820;28;20037;-50
2022/07/21 01:52:58;;;;;;;6.70;5.97;;;23.70;61.70;;;;;;5033913;28;20046;-48
2022/07/21 01:55:29;;;;;;;6.80;5.97;;;23.60;62.20;;;;;;5009345;28;20041;-51
2022/07/21 01:58:03;;;;;;;6.65;5.95;;;23.70;62.20;;;;;;5033388;28;20033;-52
2022/07/21 02:00:39;;;;;;;7.32;5.82;;;23.60;62.40;;;;;;5033187;28;20045;-47
2022/07/21 02:03:06;;;;;;;6.68;6.07;;;23.60;62.70;;;;;;5013236;28;20082;-50
2022/07/21 02:05:35;;;;;;;7.00;6.07;;;23.60;62.00;;;;;;5027218;28;20046;-48
2022/07/21 02:08:01;;;;;;;7.18;6.18;;;23.60;62.00;;;;;;5032343;28;20740;-52
2022/07/21 02:10:28;;;;;;;6.38;5.78;;;23.50;61.90;;;;;;5032305;28;20045;-47
2022/07/21 02:12:57;;;;;;;7.50;6.18;;;23.50;62.10;;;;;;5009501;28;20142;-49
2022/07/21 02:15:24;;;;;;;7.28;6.55;;;23.50;62.00;;;;;;5020637;28;20045;-51
2022/07/21 02:17:51;;;;;;;7.13;6.40;;;23.50;62.00;;;;;;5028294;28;20037;-49
2022/07/21 02:20:21;;;;;;;7.40;6.70;;;23.50;62.10;;;;;;5024631;28;20125;-49
2022/07/21 02:22:47;;;;;;;7.47;6.78;;;23.40;62.30;;;;;;5012394;28;20540;-50
2022/07/21 02:25:14;;;;;;;7.00;6.30;;;23.40;62.50;;;;;;5031816;28;20049;-48
2022/07/21 02:27:44;;;;;;;8.35;7.20;;;23.40;62.60;;;;;;5032558;28;20037;-51
2022/07/21 02:30:12;;;;;;;8.30;6.95;;;23.40;62.70;;;;;;5053665;22;20117;-50
2022/07/21 02:32:39;;;;;;;7.80;6.88;;;23.40;63.00;;;;;;5032829;28;20052;-50
2022/07/21 02:35:11;;;;;;;8.43;7.57;;;23.40;63.00;;;;;;5032400;28;20046;-51
2022/07/21 02:37:39;;;;;;;7.85;7.05;;;23.30;63.00;;;;;;5032974;28;20072;-51
2022/07/21 02:40:08;;;;;;;8.02;6.80;;;23.40;63.10;;;;;;5029509;28;20042;-52
2022/07/21 02:42:35;;;;;;;9.38;7.65;;;23.40;63.30;;;;;;5023812;28;20405;-51
2022/07/21 02:45:08;;;;;;;8.27;7.13;;;23.40;63.30;;;;;;5031282;28;20486;-52
2022/07/21 02:48:02;;;;;;;8.63;7.82;;;23.40;63.50;;;;;;5032274;28;20452;-51
2022/07/21 02:50:33;;;;;;;6.93;6.28;;;23.50;64.30;;;;;;5031819;28;20621;-52
2022/07/21 02:53:11;;;;;;;8.50;6.93;;;23.40;63.80;;;;;;5025382;28;20084;-52
2022/07/21 02:55:39;;;;;;;9.82;7.93;;;23.50;63.90;;;;;;5014273;28;20117;-52
2022/07/21 02:58:15;;;;;;;8.13;7.35;;;23.50;63.70;;;;;;5031959;28;20465;-52
2022/07/21 03:00:48;;;;;;;8.85;7.30;;;23.50;63.90;;;;;;5022698;28;20057;-52
2022/07/21 03:03:24;;;;;;;7.93;7.13;;;23.50;64.10;;;;;;5032043;28;20050;-50
2022/07/21 03:05:54;;;;;;;8.07;7.28;;;23.50;64.40;;;;;;5031727;28;20060;-52
2022/07/21 03:08:21;;;;;;;8.50;7.68;;;23.50;64.00;;;;;;5029203;28;20095;-52
2022/07/21 03:10:48;;;;;;;8.85;7.95;;;23.50;63.90;;;;;;5027702;28;20041;-53
2022/07/21 03:13:15;;;;;;;9.48;7.75;;;23.50;63.80;;;;;;5031305;28;20678;-52
2022/07/21 03:15:42;;;;;;;9.30;8.30;;;23.50;64.00;;;;;;5025689;28;20046;-50
2022/07/21 03:18:12;;;;;;;9.32;7.97;;;23.50;63.90;;;;;;5026588;28;20056;-51
2022/07/21 03:20:40;;;;;;;8.73;7.82;;;23.50;64.00;;;;;;5026251;28;20075;-52
2022/07/21 03:23:08;;;;;;;8.90;8.05;;;23.50;64.10;;;;;;5014675;28;20060;-49
2022/07/21 03:25:38;;;;;;;8.52;7.65;;;23.50;64.10;;;;;;5031630;28;20433;-51
2022/07/21 03:28:07;;;;;;;8.88;7.97;;;23.40;64.20;;;;;;5031210;28;20045;-51
2022/07/21 03:30:37;;;;;;;10.25;7.72;;;23.40;64.30;;;;;;5004024;28;20033;-50
2022/07/21 03:33:06;;;;;;;8.68;7.78;;;23.40;65.00;;;;;;5030275;28;20033;-51
2022/07/21 03:35:35;;;;;;;10.02;7.93;;;23.40;64.70;;;;;;5031892;28;20041;-53
2022/07/21 03:38:06;;;;;;;8.43;7.63;;;23.40;64.50;;;;;;5025529;28;20083;-52
2022/07/21 03:40:35;;;;;;;8.68;7.43;;;23.40;64.60;;;;;;5031713;28;20386;-52
2022/07/21 03:43:08;;;;;;;8.32;7.47;;;23.40;64.60;;;;;;5031600;28;20125;-51
2022/07/21 03:45:44;;;;;;;8.98;8.13;;;23.40;64.80;;;;;;5030976;28;20158;-52
2022/07/21 03:48:11;;;;;;;8.63;7.88;;;23.50;64.90;;;;;;5025902;28;20041;-52
2022/07/21 03:50:42;;;;;;;8.52;7.68;;;23.50;65.10;;;;;;5030967;28;20112;-52
2022/07/21 03:53:11;;;;;;;8.85;7.95;;;23.50;65.00;;;;;;5031066;28;20042;-51
2022/07/21 03:55:41;;;;;;;9.23;8.32;;;23.40;64.60;;;;;;5024500;28;20044;-50
2022/07/21 03:58:08;;;;;;;9.75;8.85;;;23.50;64.70;;;;;;5012036;28;20064;-51
2022/07/21 04:00:38;;;;;;;9.52;8.52;;;23.50;64.60;;;;;;5030792;28;20037;-52
2022/07/21 04:03:08;;;;;;;8.90;8.00;;;23.50;64.80;;;;;;5031751;28;20043;-51
2022/07/21 04:05:39;;;;;;;9.07;8.15;;;23.50;64.60;;;;;;5028668;28;20050;-51
2022/07/21 04:08:07;;;;;;;9.02;8.15;;;23.50;65.00;;;;;;5013207;28;20458;-51
2022/07/21 04:10:35;;;;;;;9.40;8.52;;;23.40;64.80;;;;;;5030751;28;20060;-51
2022/07/21 04:13:04;;;;;;;9.68;8.63;;;23.40;64.60;;;;;;5013475;28;20654;-50
2022/07/21 04:15:32;;;;;;;10.68;8.95;;;23.40;64.60;;;;;;5028560;28;20037;-52
2022/07/21 04:17:59;;;;;;;9.52;8.02;;;23.40;64.60;;;;;;5029770;28;20052;-49
2022/07/21 04:20:26;;;;;;;8.90;7.78;;;23.40;64.80;;;;;;5022556;28;20122;-50
2022/07/21 04:22:53;;;;;;;9.30;8.50;;;23.40;65.00;;;;;;5012746;28;20050;-51
2022/07/21 04:25:20;;;;;;;9.13;8.20;;;23.40;65.00;;;;;;5026506;28;20092;-50
2022/07/21 04:27:48;;;;;;;10.63;8.23;;;23.30;65.00;;;;;;5026086;28;20121;-49
2022/07/21 04:30:19;;;;;;;9.70;8.75;;;23.30;65.20;;;;;;5026283;28;20048;-52
2022/07/21 04:32:46;;;;;;;10.95;7.90;;;23.30;65.10;;;;;;5029101;28;20030;-51
2022/07/21 04:35:14;;;;;;;9.63;8.63;;;23.30;65.20;;;;;;5025110;28;20103;-51
2022/07/21 04:37:41;;;;;;;9.35;8.45;;;23.30;65.30;;;;;;5028689;28;20617;-51
2022/07/21 04:40:10;;;;;;;9.30;8.38;;;23.30;65.20;;;;;;5028211;28;20041;-50
2022/07/21 04:42:36;;;;;;;9.60;8.35;;;23.20;65.10;;;;;;5029167;28;20115;-52
2022/07/21 04:45:05;;;;;;;9.52;8.63;;;23.20;64.70;;;;;;5026403;28;20493;-52
2022/07/21 04:47:32;;;;;;;9.30;8.13;;;23.20;64.80;;;;;;5029592;28;20041;-51
2022/07/21 04:49:58;;;;;;;10.65;9.57;;;23.20;64.50;;;;;;5028141;28;20037;-51
2022/07/21 04:52:27;;;;;;;11.50;9.05;;;23.10;64.60;;;;;;5027394;28;20037;-49
2022/07/21 04:54:54;;;;;;;10.00;9.00;;;23.10;64.60;;;;;;5011279;28;20064;-50
2022/07/21 04:57:23;;;;;;;10.10;8.90;;;23.10;64.80;;;;;;5010545;28;20037;-50
2022/07/21 04:59:50;;;;;;;9.80;8.80;;;23.10;65.00;;;;;;5028794;28;20041;-50
2022/07/21 05:02:17;;;;;;;12.75;8.55;;;23.00;65.00;;;;;;5010709;28;20046;-50
2022/07/21 05:04:44;;;;;;;11.88;8.60;;;23.00;65.10;;;;;;5026387;28;20100;-51
2022/07/21 05:07:11;;;;;;;11.40;8.48;;;23.00;65.10;;;;;;5027178;28;20042;-49
2022/07/21 05:09:37;;;;;;;9.75;8.75;;;23.00;64.80;;;;;;5035817;28;20033;-50
2022/07/21 05:12:05;;;;;;;10.32;8.98;;;23.00;64.90;;;;;;5032781;28;20053;-50
2022/07/21 05:14:31;;;;;;;9.13;8.23;;;23.00;64.80;;;;;;5033825;28;20505;-52
2022/07/21 05:16:58;;;;;;;9.80;7.85;;;22.90;65.00;;;;;;5036700;28;20041;-51
2022/07/21 05:19:25;;;;;;;9.18;8.27;;;23.00;65.20;;;;;;5033782;28;20100;-48
2022/07/21 05:21:52;;;;;;;9.13;8.23;;;22.90;65.20;;;;;;5034786;28;20651;-52
2022/07/21 05:24:19;;;;;;;9.07;8.18;;;22.90;65.20;;;;;;5035212;28;20045;-49
2022/07/21 05:26:45;;;;;;;11.35;8.50;;;22.90;65.20;;;;;;5032808;28;20049;-50
2022/07/21 05:29:12;;;;;;;9.07;8.25;;;22.90;65.30;;;;;;5015967;28;20468;-50
2022/07/21 05:31:39;;;;;;;9.25;8.38;;;22.90;65.30;;;;;;5031475;28;20073;-51
2022/07/21 05:34:05;;;;;;;10.02;9.02;;;22.90;65.40;;;;;;5029673;28;20054;-47
2022/07/21 05:36:32;;;;;;;9.57;8.65;;;22.90;65.50;;;;;;5027344;28;20098;-49
2022/07/21 05:38:59;;;;;;;10.40;9.00;;;22.90;65.70;;;;;;5031315;28;20064;-51
2022/07/21 05:41:26;;;;;;;10.45;9.38;;;22.90;65.60;;;;;;5032837;28;20045;-48
2022/07/21 05:43:52;;;;;;;9.00;8.20;;;23.00;66.00;;;;;;5031228;28;20778;-51
2022/07/21 05:46:19;;;;;;;11.55;9.00;;;22.90;65.70;;;;;;5016189;28;20049;-51
2022/07/21 05:48:46;;;;;;;11.23;9.10;;;22.90;65.70;;;;;;5030683;28;20124;-48
2022/07/21 05:51:13;;;;;;;9.70;8.57;;;23.00;66.00;;;;;;5032812;28;20046;-52
2022/07/21 05:53:44;;;;;;;11.63;9.57;;;23.00;66.20;;;;;;5031454;28;20045;-51
2022/07/21 05:56:11;;;;;;;9.48;8.57;;;23.00;66.40;;;;;;5030152;28;20099;-51
2022/07/21 05:58:38;;;;;;;11.02;8.75;;;23.00;66.40;;;;;;5030731;28;20046;-52
2022/07/21 06:01:07;;;;;;;12.40;9.43;;;23.00;66.60;;;;;;5032548;28;20736;-52
2022/07/21 06:04:01;;;;;;;10.30;9.25;;;23.10;66.40;;;;;;5034036;28;20528;-48
2022/07/21 06:06:28;;;;;;;9.23;8.23;;;23.10;67.10;;;;;;5008118;28;20469;-50
2022/07/21 06:08:55;;;;;;;9.98;8.90;;;23.20;66.30;;;;;;5032123;28;20129;-52
2022/07/21 06:11:27;;;;;;;10.50;8.38;;;23.20;66.10;;;;;;5033751;28;20041;-50
2022/07/21 06:14:02;;;;;;;9.73;8.50;;;23.20;65.90;;;;;;5034308;28;20383;-51
2022/07/21 06:16:29;;;;;;;10.02;9.02;;;23.30;65.80;;;;;;5028346;28;20049;-52
2022/07/21 06:18:55;;;;;;;9.15;8.25;;;23.20;65.70;;;;;;5031450;28;20406;-51
2022/07/21 06:21:23;;;;;;;9.65;8.63;;;23.20;65.70;;;;;;5030408;28;20123;-52
2022/07/21 06:23:50;;;;;;;11.43;9.82;;;23.20;65.70;;;;;;5029069;28;20038;-52
2022/07/21 06:26:17;;;;;;;10.60;8.85;;;23.20;65.70;;;;;;5029045;28;20052;-52
2022/07/21 06:28:44;;;;;;;11.88;9.07;;;23.30;65.90;;;;;;5031286;28;20468;-52
2022/07/21 06:31:11;;;;;;;11.95;10.38;;;23.20;65.80;;;;;;5030572;28;20100;-53
2022/07/21 06:33:37;;;;;;;10.20;9.20;;;23.20;66.40;;;;;;5029446;28;20041;-50
2022/07/21 06:36:08;;;;;;;11.25;9.18;;;23.20;65.90;;;;;;5029979;28;20758;-47
2022/07/21 06:38:35;;;;;;;11.52;9.23;;;23.30;66.20;;;;;;5032489;28;20052;-48
2022/07/21 06:41:02;;;;;;;12.25;8.70;;;23.30;66.20;;;;;;5031643;28;20103;-50
2022/07/21 06:43:30;;;;;;;8.60;7.80;;;23.30;65.90;;;;;;5027466;28;20041;-51
2022/07/21 06:45:57;;;;;;;8.07;7.38;;;23.40;65.90;;;;;;5028983;28;20041;-51
2022/07/21 06:48:25;;;;;;;8.07;6.93;;;23.50;65.90;;;;;;5031126;28;20452;-49
2022/07/21 06:50:53;;;;;;;8.65;6.60;;;23.60;64.60;;;;;;5031680;28;20043;-50
2022/07/21 06:53:23;;;;;;;7.35;6.57;;;23.70;64.30;;;;;;5028759;28;20898;-51
2022/07/21 06:55:53;;;;;;;6.63;6.00;;;23.80;64.00;;;;;;5017434;28;20168;-51
2022/07/21 06:58:29;;;;;;;7.35;6.70;;;23.90;63.50;;;;;;5018737;28;20044;-52
2022/07/21 07:01:04;;;;;;;7.78;6.63;;;24.00;63.60;;;;;;5024350;28;20103;-52
2022/07/21 07:03:33;;;;;;;7.68;6.57;;;24.10;63.10;;;;;;5027538;28;20128;-51
2022/07/21 07:06:01;;;;;;;9.18;6.82;;;24.10;62.70;;;;;;5021956;28;20052;-52
2022/07/21 07:08:28;;;;;;;9.32;7.05;;;24.20;63.00;;;;;;5031241;28;20037;-52
2022/07/21 07:10:55;;;;;;;7.25;6.47;;;24.20;63.00;;;;;;5030686;28;20576;-52
2022/07/21 07:13:21;;;;;;;8.00;7.13;;;24.30;63.00;;;;;;5026584;28;20053;-51
2022/07/21 07:16:08;;;;;;;9.05;7.45;;;24.40;62.60;;;;;;5030676;28;20052;-50
2022/07/21 07:18:37;;;;;;;8.27;7.30;;;24.50;62.60;;;;;;5029978;28;20441;-51
2022/07/21 07:21:04;;;;;;;9.43;8.40;;;24.60;62.40;;;;;;5029143;28;20050;-52
2022/07/21 07:23:37;;;;;;;8.00;7.20;;;24.80;62.30;;;;;;5028508;28;20037;-49
2022/07/21 07:26:07;;;;;;;9.02;7.90;;;24.90;62.00;;;;;;5030472;28;20049;-50
2022/07/21 07:28:34;;;;;;;11.15;7.55;;;25.00;61.00;;;;;;5010233;28;20052;-50
2022/07/21 07:31:01;;;;;;;9.35;8.45;;;25.10;60.10;;;;;;5021659;28;20068;-52
2022/07/21 07:33:27;;;;;;;9.30;8.35;;;25.10;59.40;;;;;;5030102;28;20068;-50
2022/07/21 07:35:57;;;;;;;8.48;7.57;;;25.20;59.40;;;;;;5030454;28;20033;-51
2022/07/21 07:38:24;;;;;;;9.07;8.18;;;25.20;59.60;;;;;;5027728;28;20033;-49
2022/07/21 07:40:51;;;;;;;8.52;7.75;;;25.20;59.60;;;;;;5030513;28;20041;-52
2022/07/21 07:43:20;;;;;;;10.15;9.10;;;25.20;59.70;;;;;;5020487;28;20037;-50
2022/07/21 07:45:46;;;;;;;8.63;7.40;;;25.30;59.70;;;;;;5029563;28;20437;-52
2022/07/21 07:48:13;;;;;;;8.63;7.70;;;25.30;59.40;;;;;;5021622;28;20506;-48
2022/07/21 07:50:40;;;;;;;9.15;8.05;;;25.40;59.50;;;;;;5027036;28;20666;-50
2022/07/21 07:53:07;;;;;;;9.73;7.65;;;25.40;58.80;;;;;;5028605;28;20099;-51
2022/07/21 07:55:34;;;;;;;9.85;7.85;;;25.50;58.40;;;;;;5030735;28;20033;-52
2022/07/21 07:58:00;;;;;;;8.55;7.43;;;25.50;59.00;;;;;;5028949;28;20121;-51
2022/07/21 08:00:27;;;;;;;7.55;6.85;;;25.50;58.70;;;;;;5025644;28;20041;-51
2022/07/21 08:03:14;;;;;;;9.50;7.88;;;25.50;58.20;;;;;;5029584;28;20391;-53
2022/07/21 08:05:43;;;;;;;9.30;8.07;;;25.50;58.30;;;;;;5030486;28;20490;-52
2022/07/21 08:08:12;;;;;;;7.72;6.25;;;25.50;58.30;;;;;;5025174;28;20045;-49
2022/07/21 08:10:39;;;;;;;7.47;6.78;;;25.50;58.40;;;;;;5021147;28;20095;-49
2022/07/21 08:13:11;;;;;;;10.52;7.05;;;25.40;58.30;;;;;;5020984;28;20038;-52
2022/07/21 08:15:39;;;;;;;8.40;7.40;;;25.40;58.50;;;;;;5027451;28;20791;-52
2022/07/21 08:18:06;;;;;;;7.65;6.85;;;25.50;58.70;;;;;;5027468;28;20073;-51
2022/07/21 08:20:34;;;;;;;9.52;7.28;;;25.60;58.40;;;;;;5022916;28;20108;-53
2022/07/21 08:23:01;;;;;;;8.70;6.65;;;25.60;58.40;;;;;;5026523;28;20134;-52
2022/07/21 08:25:28;;;;;;;10.60;7.22;;;25.60;57.60;;;;;;5021071;28;20048;-49
2022/07/21 08:27:55;;;;;;;7.32;6.60;;;25.70;57.30;;;;;;5027299;28;20037;-52
2022/07/21 08:30:22;;;;;;;10.38;6.90;;;25.70;56.90;;;;;;5030448;28;20041;-53
2022/07/21 08:32:56;;;;;;;7.20;6.55;;;25.70;56.40;;;;;;5029775;28;20520;-52
2022/07/21 08:35:23;;;;;;;10.43;6.38;;;25.60;56.20;;;;;;5024062;28;20038;-51
2022/07/21 08:37:59;;;;;;;7.07;6.35;;;25.60;56.20;;;;;;5026392;28;20084;-52
2022/07/21 08:40:29;;;;;;;7.47;6.68;;;25.60;56.10;;;;;;5027973;28;20033;-51
2022/07/21 08:42:56;;;;;;;8.23;6.30;;;25.50;56.40;;;;;;5029605;28;20048;-49
2022/07/21 08:45:23;;;;;;;10.82;7.10;;;25.50;56.80;;;;;;5030286;28;20092;-51
2022/07/21 08:47:52;;;;;;;7.00;6.38;;;25.40;57.00;;;;;;5023217;28;20107;-51
2022/07/21 08:50:22;;;;;;;8.43;7.28;;;25.40;57.40;;;;;;5021678;28;20041;-50
2022/07/21 08:52:49;;;;;;;7.30;6.60;;;25.40;57.10;;;;;;5027752;28;20053;-52
2022/07/21 08:55:24;;;;;;;8.25;6.90;;;25.40;57.10;;;;;;5023948;28;20427;-52
2022/07/21 08:57:51;;;;;;;7.93;6.32;;;25.40;57.00;;;;;;5021865;28;20107;-52
2022/07/21 09:00:18;;;;;;;8.68;6.47;;;25.40;57.00;;;;;;5029883;28;20038;-52
2022/07/21 09:02:45;;;;;;;6.95;6.28;;;25.30;56.90;;;;;;5052968;22;20061;-47
2022/07/21 09:05:12;;;;;;;8.15;7.05;;;25.30;57.10;;;;;;5030496;28;20054;-52
2022/07/21 09:07:54;;;;;;;9.85;7.35;;;25.20;57.00;;;;;;5029535;28;20095;-50
2022/07/21 09:10:23;;;;;;;7.78;6.72;;;25.20;57.30;;;;;;5030475;28;20091;-47
2022/07/21 09:12:58;;;;;;;11.57;8.00;;;25.10;57.40;;;;;;5025870;28;20037;-48
2022/07/21 09:15:29;;;;;;;11.30;6.55;;;25.00;57.50;;;;;;5026969;28;20172;-49
2022/07/21 09:18:13;;;;;;;8.38;7.43;;;25.00;57.90;;;;;;5023805;28;20038;-52
2022/07/21 09:20:51;;;;;;;9.15;7.28;;;24.90;58.00;;;;;;5022561;28;20076;-48
2022/07/21 09:23:21;;;;;;;8.10;7.30;;;24.80;58.50;;;;;;5029097;28;20498;-47
2022/07/21 09:25:51;;;;;;;8.35;7.50;;;24.70;58.60;;;;;;5028654;28;20052;-47
2022/07/21 09:28:29;;;;;;;10.32;7.15;;;24.60;58.90;;;;;;5024271;28;20041;-50
2022/07/21 09:30:55;;;;;;;9.82;7.78;;;24.50;59.50;;;;;;5026151;28;20542;-52
2022/07/21 09:33:25;;;;;;;7.72;6.88;;;24.50;59.40;;;;;;5029171;28;20568;-47
2022/07/21 09:35:57;;;;;;;10.98;6.97;;;24.40;59.90;;;;;;5024399;28;20049;-49
2022/07/21 09:38:25;;;;;;;8.30;7.10;;;24.50;60.30;;;;;;5021739;28;20560;-52
2022/07/21 09:40:52;;;;;;;7.03;6.43;;;24.40;60.90;;;;;;5029532;28;20044;-50
2022/07/21 09:43:41;;;;;;;6.63;5.95;;;24.50;61.40;;;;;;5022935;28;20046;-47
2022/07/21 09:46:23;;;;;;;8.43;5.65;;;24.50;61.70;;;;;;5028961;28;20494;-51
2022/07/21 09:48:53;;;;;;;6.28;5.68;;;24.60;61.40;;;;;;5029436;28;20502;-50
2022/07/21 09:51:43;;;;;;;8.13;5.85;;;24.60;61.10;;;;;;5023604;28;20046;-47
2022/07/21 09:54:12;;;;;;;6.10;5.32;;;24.60;61.20;;;;;;5026476;28;20037;-50
2022/07/21 09:56:42;;;;;;;6.18;5.43;;;24.60;61.60;;;;;;5032525;28;20037;-51
2022/07/21 09:59:10;;;;;;;5.63;5.10;;;24.60;61.50;;;;;;5032986;28;20041;-51
2022/07/21 10:01:38;;;;;;;5.57;5.03;;;24.50;62.30;;;;;;5029346;28;20579;-53
2022/07/21 10:04:05;;;;;;;5.00;4.50;;;24.60;62.50;;;;;;5029338;28;20099;-52
2022/07/21 10:06:38;;;;;;;5.78;5.22;;;24.50;62.60;;;;;;5031356;28;20519;-48
2022/07/21 10:09:05;;;;;;;;;;;24.50;62.70;;;;;;5031635;28;20050;-48
2022/07/21 10:11:33;;;;;;;7.68;5.63;;;24.50;62.40;;;;;;5024110;28;20428;-51
2022/07/21 10:14:02;;;;;;;7.32;6.63;;;24.40;61.90;;;;;;5028960;28;20038;-52
2022/07/21 10:16:28;;;;;;;6.45;5.85;;;24.40;62.80;;;;;;5031188;28;20098;-51
2022/07/21 10:19:16;;;;;;;7.25;6.45;;;24.20;63.00;;;;;;5031929;28;20058;-48
2022/07/21 10:21:46;;;;;;;8.00;6.78;;;24.20;64.10;;;;;;5026478;28;20049;-48
2022/07/21 10:24:14;;;;;;;8.23;7.07;;;24.10;64.50;;;;;;5030847;28;20053;-50
2022/07/21 10:27:01;;;;;;;10.10;8.18;;;24.10;65.00;;;;;;5030354;28;20095;-48
2022/07/21 10:30:03;;;;;;;8.70;7.68;;;24.00;66.60;;;;;;5029169;28;20045;-53
2022/07/21 10:32:35;;;;;;;7.38;6.57;;;24.00;66.40;;;;;;5028941;28;20091;-50
2022/07/21 10:35:28;;;;;;;9.80;7.72;;;24.00;65.90;;;;;;5029253;28;20041;-49
2022/07/21 10:37:56;;;;;;;9.40;8.38;;;24.00;66.50;;;;;;5032027;28;20079;-49
2022/07/21 10:40:24;;;;;;;9.18;7.38;;;24.00;65.40;;;;;;5026459;28;20057;-52
2022/07/21 10:43:00;;;;;;;10.38;7.75;;;24.00;66.00;;;;;;5030561;28;20068;-49
2022/07/21 10:45:42;;;;;;;8.15;7.35;;;24.00;66.50;;;;;;5030276;28;20513;-48
2022/07/21 10:48:42;;;;;;;10.18;7.85;;;24.00;66.40;;;;;;5030132;28;20037;-49
2022/07/21 10:51:16;;;;;;;8.65;7.85;;;23.90;66.40;;;;;;5029278;28;20616;-50
2022/07/21 10:53:46;;;;;;;10.07;8.95;;;23.90;66.30;;;;;;5013180;28;20047;-49
2022/07/21 10:56:31;;;;;;;8.98;7.57;;;24.00;66.20;;;;;;5029973;28;20119;-50
2022/07/21 10:58:58;;;;;;;9.68;7.55;;;23.90;67.30;;;;;;5028323;28;20038;-47
2022/07/21 11:01:26;;;;;;;8.48;7.18;;;23.90;66.50;;;;;;5030423;28;20049;-48
2022/07/21 11:04:08;;;;;;;8.10;7.25;;;23.80;66.80;;;;;;5031762;28;20041;-49
2022/07/21 11:06:38;;;;;;;7.63;6.88;;;23.80;67.50;;;;;;5029489;28;20034;-49
2022/07/21 11:09:04;;;;;;;7.13;6.47;;;23.80;67.00;;;;;;5028447;28;20053;-49
2022/07/21 11:11:33;;;;;;;7.75;7.05;;;23.80;67.10;;;;;;5030522;28;20095;-49
2022/07/21 11:14:12;;;;;;;7.25;6.55;;;23.80;67.60;;;;;;5030851;28;20120;-49
2022/07/21 11:16:42;;;;;;;5.25;4.75;;;23.80;68.20;;;;;;5027341;28;20139;-48
2022/07/21 11:19:28;;;;;;;5.60;4.97;;;23.80;67.80;;;;;;5029457;28;20049;-49
2022/07/21 11:21:56;;;;;;;5.38;4.78;;;23.80;68.80;;;;;;5027901;28;20041;-49
2022/07/21 11:24:24;;;;;;;4.10;3.80;;;23.70;67.90;;;;;;5029141;28;20049;-49
2022/07/21 11:27:06;;;;;;;3.72;3.13;;;23.70;67.80;;;;;;5025467;28;20075;-49
2022/07/21 11:29:34;;;;;;;3.65;3.20;;;23.60;68.10;;;;;;5027338;28;20048;-49
2022/07/21 11:32:04;;;;;;;3.85;3.55;;;23.60;67.70;;;;;;5030092;28;20064;-47
2022/07/21 11:34:59;;;;;;;2.83;2.63;;;23.50;68.30;;;;;;5027268;28;20123;-48
2022/07/21 11:37:33;;;;;;;2.28;2.08;;;23.50;69.70;;;;;;5018048;28;20067;-49
2022/07/21 11:40:19;;;;;;;3.30;2.47;;;23.40;69.30;;;;;;5026140;28;20135;-50
2022/07/21 11:42:53;;;;;;;2.65;2.45;;;23.30;70.20;;;;;;5027971;28;20115;-49
2022/07/21 11:45:25;;;;;;;2.25;2.13;;;23.30;69.50;;;;;;5026083;28;20037;-47
2022/07/21 11:47:54;;;;;;;3.92;2.85;;;23.20;69.60;;;;;;5029885;28;20052;-48
2022/07/21 11:50:21;;;;;;;2.22;2.03;;;23.20;69.40;;;;;;5029401;28;20125;-51
2022/07/21 11:52:49;;;;;;;2.38;2.22;;;23.20;69.50;;;;;;5030289;28;20045;-52
2022/07/21 11:55:16;;;;;;;1.80;1.70;;;23.20;69.10;;;;;;5026676;28;20047;-49
2022/07/21 11:57:46;;;;;;;1.60;1.45;;;23.10;68.90;;;;;;5031074;28;20491;-50
2022/07/21 12:00:15;;;;;;;2.30;2.10;;;23.10;68.80;;;;;;5029746;28;20049;-48
2022/07/21 12:02:47;;;;;;;1.88;1.70;;;23.10;68.50;;;;;;5024695;28;20041;-47
2022/07/21 12:05:15;;;;;;;2.10;2.00;;;23.10;68.40;;;;;;5026032;28;20053;-48
2022/07/21 12:07:48;;;;;;;2.40;2.20;;;23.00;68.70;;;;;;5031011;28;20065;-48
2022/07/21 12:10:23;;;;;;;2.58;2.38;;;23.00;68.80;;;;;;5026766;28;20087;-47
2022/07/21 12:13:01;;;;;;;2.70;2.50;;;23.00;69.30;;;;;;5029294;28;20051;-52
2022/07/21 12:15:36;;;;;;;2.15;2.05;;;23.00;69.50;;;;;;5027003;28;20127;-48
2022/07/21 12:18:07;;;;;;;4.60;3.00;;;23.00;69.60;;;;;;5031712;28;20038;-49
2022/07/21 12:20:35;;;;;;;3.42;3.13;;;23.00;69.70;;;;;;5027024;28;20049;-47
2022/07/21 12:23:27;;;;;;;5.15;3.15;;;23.20;69.20;;;;;;5024249;28;20058;-50
2022/07/21 12:25:56;;;;;;;3.30;3.00;;;23.30;70.50;;;;;;5026793;28;20089;-49
2022/07/21 12:29:01;;;;;;;4.25;3.85;;;23.40;69.10;;;;;;5030118;28;20061;-46
2022/07/21 12:31:33;;;;;;;5.05;4.28;;;23.60;68.60;;;;;;4928596;29;20052;-49
2022/07/21 12:34:13;;;;;;;6.68;5.03;;;23.60;67.90;;;;;;4929418;29;20063;-47
2022/07/21 12:36:53;;;;;;;5.80;5.22;;;23.70;67.20;;;;;;4999348;28;20452;-52
2022/07/21 12:42:35;;;;;;;6.07;5.47;;;23.60;66.80;;;;;;5022432;28;20062;-49
2022/07/21 12:45:20;;;;;;;6.47;5.72;;;23.60;66.80;;;;;;5029070;28;20059;-49
2022/07/21 12:48:06;;;;;;;6.85;6.15;;;23.60;67.00;;;;;;5021931;28;20059;-48
2022/07/21 12:50:33;;;;;;;7.20;6.47;;;23.50;67.00;;;;;;5023443;28;20033;-49
2022/07/21 12:53:00;;;;;;;8.10;6.72;;;23.50;66.70;;;;;;5028056;28;20102;-49
2022/07/21 12:55:27;;;;;;;8.02;7.22;;;23.40;66.60;;;;;;5026919;28;20521;-49
2022/07/21 12:57:53;;;;;;;7.88;7.07;;;23.30;66.50;;;;;;5030006;28;20080;-49
2022/07/21 13:00:27;;;;;;;9.95;8.18;;;23.20;66.80;;;;;;5025927;28;20099;-49
2022/07/21 13:02:55;;;;;;;9.70;7.72;;;23.20;67.30;;;;;;5028547;28;20083;-50
2022/07/21 13:05:24;;;;;;;8.10;7.25;;;23.10;67.50;;;;;;5028495;28;20073;-48
2022/07/21 13:07:51;;;;;;;9.43;8.52;;;23.10;67.60;;;;;;5029554;28;20449;-49